sensor_id;sensor_type;location;lat;lon;timestamp;pressure;altitude;pressure_sealevel;temperature;humidity
10510;BME280;5303;53.266;10.410;2023-04-03T00:00:28;103046.66;;;13.79;43.53
10510;BME280;5303;53.266;10.410;2023-04-03T00:02:54;103046.41;;;13.92;43.38
10510;BME280;5303;53.266;10.410;2023-04-03T00:05:20;103044.25;;;13.95;43.41
10510;BME280;5303;53.266;10.410;2023-04-03T00:07:45;103043.84;;;14.00;43.07
10510;BME280;5303;53.266;10.410;2023-04-03T00:10:10;103049.31;;;14.00;43.43
10510;BME280;5303;53.266;10.410;2023-04-03T00:12:36;103046.31;;;14.13;43.53
10510;BME280;5303;53.266;10.410;2023-04-03T00:15:02;103053.31;;;13.86;42.83
10510;BME280;5303;53.266;10.410;2023-04-03T00:17:27;103051.31;;;13.88;43.13
10510;BME280;5303;53.266;10.410;2023-04-03T00:19:53;103057.38;;;14.02;43.18
10510;BME280;5303;53.266;10.410;2023-04-03T00:22:18;103055.78;;;13.99;43.57
10510;BME280;5303;53.266;10.410;2023-04-03T00:24:43;103045.53;;;13.91;42.92
10510;BME280;5303;53.266;10.410;2023-04-03T00:27:08;103061.09;;;13.81;43.03
10510;BME280;5303;53.266;10.410;2023-04-03T00:29:34;103056.56;;;13.70;43.38
10510;BME280;5303;53.266;10.410;2023-04-03T00:31:59;103047.94;;;13.75;43.33
10510;BME280;5303;53.266;10.410;2023-04-03T00:34:25;103053.56;;;13.73;43.03
10510;BME280;5303;53.266;10.410;2023-04-03T00:36:50;103063.69;;;13.92;42.45
10510;BME280;5303;53.266;10.410;2023-04-03T00:39:16;103061.78;;;13.83;42.54
10510;BME280;5303;53.266;10.410;2023-04-03T00:41:41;103058.09;;;13.94;42.44
10510;BME280;5303;53.266;10.410;2023-04-03T00:47:01;103062.72;;;13.93;42.51
10510;BME280;5303;53.266;10.410;2023-04-03T00:49:27;103068.72;;;13.78;42.78
10510;BME280;5303;53.266;10.410;2023-04-03T00:51:53;103059.34;;;13.80;43.11
10510;BME280;5303;53.266;10.410;2023-04-03T00:54:19;103059.94;;;13.84;43.06
10510;BME280;5303;53.266;10.410;2023-04-03T00:56:45;103065.84;;;13.89;43.09
10510;BME280;5303;53.266;10.410;2023-04-03T00:59:14;103061.53;;;13.96;43.15
10510;BME280;5303;53.266;10.410;2023-04-03T01:01:40;103068.47;;;13.90;43.17
10510;BME280;5303;53.266;10.410;2023-04-03T01:06:59;103078.25;;;13.93;42.84
10510;BME280;5303;53.266;10.410;2023-04-03T01:09:26;103078.13;;;13.85;42.82
10510;BME280;5303;53.266;10.410;2023-04-03T01:11:53;103075.69;;;13.91;42.94
10510;BME280;5303;53.266;10.410;2023-04-03T01:14:18;103070.56;;;13.77;42.72
10510;BME280;5303;53.266;10.410;2023-04-03T01:16:52;103074.06;;;13.89;42.86
10510;BME280;5303;53.266;10.410;2023-04-03T01:19:18;103082.00;;;13.82;42.84
10510;BME280;5303;53.266;10.410;2023-04-03T01:24:50;103069.63;;;13.88;42.62
10510;BME280;5303;53.266;10.410;2023-04-03T01:27:18;103069.06;;;13.94;42.57
10510;BME280;5303;53.266;10.410;2023-04-03T01:29:43;103072.47;;;13.86;42.67
10510;BME280;5303;53.266;10.410;2023-04-03T01:32:08;103076.81;;;13.89;42.59
10510;BME280;5303;53.266;10.410;2023-04-03T01:34:34;103077.41;;;13.92;42.65
10510;BME280;5303;53.266;10.410;2023-04-03T01:36:59;103075.81;;;13.90;42.87
10510;BME280;5303;53.266;10.410;2023-04-03T01:39:25;103074.31;;;13.76;42.74
10510;BME280;5303;53.266;10.410;2023-04-03T01:41:50;103073.84;;;13.61;42.77
10510;BME280;5303;53.266;10.410;2023-04-03T01:44:16;103081.72;;;13.55;42.87
10510;BME280;5303;53.266;10.410;2023-04-03T01:46:41;103076.59;;;13.61;42.82
10510;BME280;5303;53.266;10.410;2023-04-03T01:49:07;103075.00;;;13.59;42.96
10510;BME280;5303;53.266;10.410;2023-04-03T01:51:33;103081.91;;;13.63;42.73
10510;BME280;5303;53.266;10.410;2023-04-03T01:53:58;103088.13;;;13.65;42.58
10510;BME280;5303;53.266;10.410;2023-04-03T01:56:23;103089.41;;;13.61;42.54
10510;BME280;5303;53.266;10.410;2023-04-03T01:58:50;103089.66;;;13.58;42.60
10510;BME280;5303;53.266;10.410;2023-04-03T02:01:15;103088.97;;;13.56;42.57
10510;BME280;5303;53.266;10.410;2023-04-03T02:03:41;103088.22;;;13.54;42.37
10510;BME280;5303;53.266;10.410;2023-04-03T02:06:06;103086.94;;;13.58;42.56
10510;BME280;5303;53.266;10.410;2023-04-03T02:08:31;103085.91;;;13.49;42.63
10510;BME280;5303;53.266;10.410;2023-04-03T02:10:57;103086.78;;;13.49;42.49
10510;BME280;5303;53.266;10.410;2023-04-03T02:13:22;103085.63;;;13.52;42.95
10510;BME280;5303;53.266;10.410;2023-04-03T02:15:47;103082.44;;;13.47;42.78
10510;BME280;5303;53.266;10.410;2023-04-03T02:18:13;103080.22;;;13.41;43.48
10510;BME280;5303;53.266;10.410;2023-04-03T02:20:39;103081.91;;;13.32;43.40
10510;BME280;5303;53.266;10.410;2023-04-03T02:23:04;103079.38;;;13.40;43.21
10510;BME280;5303;53.266;10.410;2023-04-03T02:25:31;103080.53;;;13.17;43.47
10510;BME280;5303;53.266;10.410;2023-04-03T02:27:57;103087.97;;;13.15;43.31
10510;BME280;5303;53.266;10.410;2023-04-03T02:30:22;103091.59;;;13.15;43.38
10510;BME280;5303;53.266;10.410;2023-04-03T02:32:47;103087.13;;;13.14;43.52
10510;BME280;5303;53.266;10.410;2023-04-03T02:35:12;103097.53;;;13.20;43.61
10510;BME280;5303;53.266;10.410;2023-04-03T02:37:38;103089.97;;;13.13;43.28
10510;BME280;5303;53.266;10.410;2023-04-03T02:40:04;103086.25;;;13.14;43.73
10510;BME280;5303;53.266;10.410;2023-04-03T02:42:30;103091.91;;;13.22;43.29
10510;BME280;5303;53.266;10.410;2023-04-03T02:44:55;103091.47;;;13.38;43.18
10510;BME280;5303;53.266;10.410;2023-04-03T02:47:21;103089.72;;;13.37;43.03
10510;BME280;5303;53.266;10.410;2023-04-03T02:49:46;103091.59;;;13.36;43.01
10510;BME280;5303;53.266;10.410;2023-04-03T02:52:14;103100.41;;;13.40;42.99
10510;BME280;5303;53.266;10.410;2023-04-03T02:54:39;103098.69;;;13.39;42.75
10510;BME280;5303;53.266;10.410;2023-04-03T02:57:05;103097.94;;;13.37;42.63
10510;BME280;5303;53.266;10.410;2023-04-03T02:59:30;103092.25;;;13.28;42.72
10510;BME280;5303;53.266;10.410;2023-04-03T03:01:56;103090.47;;;13.39;42.86
10510;BME280;5303;53.266;10.410;2023-04-03T03:04:21;103094.78;;;13.41;42.87
10510;BME280;5303;53.266;10.410;2023-04-03T03:06:47;103096.13;;;13.47;42.88
10510;BME280;5303;53.266;10.410;2023-04-03T03:09:12;103095.69;;;13.42;42.77
10510;BME280;5303;53.266;10.410;2023-04-03T03:11:38;103101.00;;;13.43;42.96
10510;BME280;5303;53.266;10.410;2023-04-03T03:14:03;103100.00;;;13.44;42.80
10510;BME280;5303;53.266;10.410;2023-04-03T03:16:29;103098.97;;;13.36;42.77
10510;BME280;5303;53.266;10.410;2023-04-03T03:18:55;103091.91;;;13.22;43.01
10510;BME280;5303;53.266;10.410;2023-04-03T03:21:20;103097.47;;;13.11;43.28
10510;BME280;5303;53.266;10.410;2023-04-03T03:23:45;103097.25;;;13.02;43.21
10510;BME280;5303;53.266;10.410;2023-04-03T03:26:11;103092.53;;;13.04;43.34
10510;BME280;5303;53.266;10.410;2023-04-03T03:28:38;103093.00;;;12.89;43.55
10510;BME280;5303;53.266;10.410;2023-04-03T03:31:05;103103.25;;;12.96;43.41
10510;BME280;5303;53.266;10.410;2023-04-03T03:33:30;103104.06;;;12.87;43.36
10510;BME280;5303;53.266;10.410;2023-04-03T03:35:56;103093.53;;;12.82;43.05
10510;BME280;5303;53.266;10.410;2023-04-03T03:38:22;103105.66;;;12.90;43.17
10510;BME280;5303;53.266;10.410;2023-04-03T03:40:49;103098.41;;;12.79;43.27
10510;BME280;5303;53.266;10.410;2023-04-03T03:43:15;103095.19;;;12.74;42.79
10510;BME280;5303;53.266;10.410;2023-04-03T03:45:40;103091.84;;;12.70;43.26
10510;BME280;5303;53.266;10.410;2023-04-03T03:48:06;103090.69;;;12.84;43.20
10510;BME280;5303;53.266;10.410;2023-04-03T03:50:31;103086.13;;;12.94;43.06
10510;BME280;5303;53.266;10.410;2023-04-03T03:52:56;103089.47;;;12.98;43.08
10510;BME280;5303;53.266;10.410;2023-04-03T03:55:22;103087.00;;;12.95;42.87
10510;BME280;5303;53.266;10.410;2023-04-03T03:57:47;103092.72;;;12.92;43.20
10510;BME280;5303;53.266;10.410;2023-04-03T04:00:13;103091.66;;;12.83;43.18
10510;BME280;5303;53.266;10.410;2023-04-03T04:02:38;103100.38;;;12.77;42.96
10510;BME280;5303;53.266;10.410;2023-04-03T04:05:04;103087.56;;;12.77;43.30
10510;BME280;5303;53.266;10.410;2023-04-03T04:07:29;103099.09;;;12.60;43.67
10510;BME280;5303;53.266;10.410;2023-04-03T04:09:55;103106.97;;;12.53;43.83
10510;BME280;5303;53.266;10.410;2023-04-03T04:12:20;103112.19;;;12.45;43.47
10510;BME280;5303;53.266;10.410;2023-04-03T04:14:46;103114.22;;;12.32;43.60
10510;BME280;5303;53.266;10.410;2023-04-03T04:17:15;103120.19;;;12.26;43.78
10510;BME280;5303;53.266;10.410;2023-04-03T04:19:40;103117.97;;;12.20;43.97
10510;BME280;5303;53.266;10.410;2023-04-03T04:22:06;103115.75;;;12.25;43.96
10510;BME280;5303;53.266;10.410;2023-04-03T04:24:31;103121.97;;;12.27;44.18
10510;BME280;5303;53.266;10.410;2023-04-03T04:26:56;103111.13;;;12.37;44.04
10510;BME280;5303;53.266;10.410;2023-04-03T04:29:22;103121.06;;;12.38;43.67
10510;BME280;5303;53.266;10.410;2023-04-03T04:31:47;103128.13;;;12.40;43.79
10510;BME280;5303;53.266;10.410;2023-04-03T04:34:12;103123.00;;;12.47;43.52
10510;BME280;5303;53.266;10.410;2023-04-03T04:36:38;103132.34;;;12.44;43.57
10510;BME280;5303;53.266;10.410;2023-04-03T04:39:04;103132.06;;;12.47;43.67
10510;BME280;5303;53.266;10.410;2023-04-03T04:41:30;103130.81;;;12.51;43.61
10510;BME280;5303;53.266;10.410;2023-04-03T04:43:56;103140.28;;;12.47;43.89
10510;BME280;5303;53.266;10.410;2023-04-03T04:46:21;103140.88;;;12.51;43.54
10510;BME280;5303;53.266;10.410;2023-04-03T04:48:47;103136.44;;;12.39;43.42
10510;BME280;5303;53.266;10.410;2023-04-03T04:51:13;103136.78;;;12.45;43.86
10510;BME280;5303;53.266;10.410;2023-04-03T04:53:39;103142.63;;;12.52;43.58
10510;BME280;5303;53.266;10.410;2023-04-03T04:56:05;103141.47;;;12.66;43.25
10510;BME280;5303;53.266;10.410;2023-04-03T04:58:30;103148.06;;;12.63;43.22
10510;BME280;5303;53.266;10.410;2023-04-03T05:01:03;103140.19;;;12.70;43.32
10510;BME280;5303;53.266;10.410;2023-04-03T05:03:29;103144.06;;;12.67;43.14
10510;BME280;5303;53.266;10.410;2023-04-03T05:05:54;103153.00;;;12.69;43.35
10510;BME280;5303;53.266;10.410;2023-04-03T05:08:20;103152.41;;;12.66;43.71
10510;BME280;5303;53.266;10.410;2023-04-03T05:10:46;103148.91;;;12.75;43.60
10510;BME280;5303;53.266;10.410;2023-04-03T05:13:12;103154.81;;;12.80;43.50
10510;BME280;5303;53.266;10.410;2023-04-03T05:15:37;103151.22;;;12.79;43.45
10510;BME280;5303;53.266;10.410;2023-04-03T05:18:02;103161.03;;;12.82;43.36
10510;BME280;5303;53.266;10.410;2023-04-03T05:20:28;103162.66;;;12.85;43.65
10510;BME280;5303;53.266;10.410;2023-04-03T05:22:53;103157.28;;;12.83;43.19
10510;BME280;5303;53.266;10.410;2023-04-03T05:25:18;103159.59;;;12.99;43.14
10510;BME280;5303;53.266;10.410;2023-04-03T05:27:44;103154.59;;;13.04;43.04
10510;BME280;5303;53.266;10.410;2023-04-03T05:30:09;103153.75;;;13.03;43.14
10510;BME280;5303;53.266;10.410;2023-04-03T05:32:35;103160.44;;;12.99;43.44
10510;BME280;5303;53.266;10.410;2023-04-03T05:35:01;103164.47;;;12.95;43.32
10510;BME280;5303;53.266;10.410;2023-04-03T05:37:26;103173.53;;;12.96;43.20
10510;BME280;5303;53.266;10.410;2023-04-03T05:39:51;103167.94;;;12.97;43.83
10510;BME280;5303;53.266;10.410;2023-04-03T05:42:17;103172.00;;;13.03;43.90
10510;BME280;5303;53.266;10.410;2023-04-03T05:44:42;103168.94;;;13.17;43.60
10510;BME280;5303;53.266;10.410;2023-04-03T05:47:08;103169.97;;;13.16;43.91
10510;BME280;5303;53.266;10.410;2023-04-03T05:49:34;103176.25;;;13.28;43.69
10510;BME280;5303;53.266;10.410;2023-04-03T05:52:00;103183.19;;;13.32;44.01
10510;BME280;5303;53.266;10.410;2023-04-03T05:54:29;103175.66;;;13.45;43.86
10510;BME280;5303;53.266;10.410;2023-04-03T05:56:55;103180.25;;;13.45;43.67
10510;BME280;5303;53.266;10.410;2023-04-03T05:59:21;103183.28;;;13.42;44.05
10510;BME280;5303;53.266;10.410;2023-04-03T06:01:46;103187.16;;;13.39;43.80
10510;BME280;5303;53.266;10.410;2023-04-03T06:04:12;103184.69;;;13.36;44.08
10510;BME280;5303;53.266;10.410;2023-04-03T06:06:53;103189.91;;;13.07;44.65
10510;BME280;5303;53.266;10.410;2023-04-03T06:09:24;103182.50;;;13.19;44.81
10510;BME280;5303;53.266;10.410;2023-04-03T06:11:50;103187.63;;;13.12;44.66
10510;BME280;5303;53.266;10.410;2023-04-03T06:14:16;103192.84;;;13.15;44.53
10510;BME280;5303;53.266;10.410;2023-04-03T06:16:42;103196.44;;;13.16;44.23
10510;BME280;5303;53.266;10.410;2023-04-03T06:19:09;103194.63;;;13.37;44.98
10510;BME280;5303;53.266;10.410;2023-04-03T06:21:35;103198.13;;;13.07;44.63
10510;BME280;5303;53.266;10.410;2023-04-03T06:24:02;103186.94;;;13.31;44.51
10510;BME280;5303;53.266;10.410;2023-04-03T06:26:27;103189.69;;;13.52;44.39
10510;BME280;5303;53.266;10.410;2023-04-03T06:28:53;103188.28;;;13.04;44.68
10510;BME280;5303;53.266;10.410;2023-04-03T06:31:18;103192.16;;;13.02;44.59
10510;BME280;5303;53.266;10.410;2023-04-03T06:33:44;103201.78;;;13.17;45.24
10510;BME280;5303;53.266;10.410;2023-04-03T06:36:10;103204.38;;;12.54;45.22
10510;BME280;5303;53.266;10.410;2023-04-03T06:38:36;103206.22;;;12.65;44.94
10510;BME280;5303;53.266;10.410;2023-04-03T06:41:01;103206.84;;;12.69;44.58
10510;BME280;5303;53.266;10.410;2023-04-03T06:43:27;103201.84;;;12.74;44.53
10510;BME280;5303;53.266;10.410;2023-04-03T06:45:52;103206.69;;;13.35;43.74
10510;BME280;5303;53.266;10.410;2023-04-03T06:48:18;103209.38;;;13.25;44.60
10510;BME280;5303;53.266;10.410;2023-04-03T06:50:43;103214.00;;;13.45;43.72
10510;BME280;5303;53.266;10.410;2023-04-03T06:53:11;103210.06;;;14.20;42.69
10510;BME280;5303;53.266;10.410;2023-04-03T06:55:37;103209.81;;;14.03;42.78
10510;BME280;5303;53.266;10.410;2023-04-03T06:58:03;103219.50;;;13.76;42.82
10510;BME280;5303;53.266;10.410;2023-04-03T07:00:29;103217.72;;;13.44;43.88
10510;BME280;5303;53.266;10.410;2023-04-03T07:02:55;103215.50;;;14.11;42.40
10510;BME280;5303;53.266;10.410;2023-04-03T07:05:22;103212.47;;;14.14;42.13
10510;BME280;5303;53.266;10.410;2023-04-03T07:07:48;103217.72;;;13.65;42.73
10510;BME280;5303;53.266;10.410;2023-04-03T07:10:14;103216.97;;;13.63;42.10
10510;BME280;5303;53.266;10.410;2023-04-03T07:12:40;103220.25;;;13.57;42.71
10510;BME280;5303;53.266;10.410;2023-04-03T07:15:06;103225.66;;;12.94;42.89
10510;BME280;5303;53.266;10.410;2023-04-03T07:17:32;103224.03;;;13.24;42.92
10510;BME280;5303;53.266;10.410;2023-04-03T07:19:57;103221.50;;;14.35;41.76
10510;BME280;5303;53.266;10.410;2023-04-03T07:22:22;103225.31;;;14.54;41.40
10510;BME280;5303;53.266;10.410;2023-04-03T07:24:48;103219.38;;;14.08;41.61
10510;BME280;5303;53.266;10.410;2023-04-03T07:27:13;103227.69;;;13.97;41.24
10510;BME280;5303;53.266;10.410;2023-04-03T07:29:39;103225.34;;;13.92;41.64
10510;BME280;5303;53.266;10.410;2023-04-03T07:32:05;103221.09;;;14.90;39.90
10510;BME280;5303;53.266;10.410;2023-04-03T07:34:32;103230.16;;;14.81;40.27
10510;BME280;5303;53.266;10.410;2023-04-03T07:36:57;103234.47;;;14.33;40.00
10510;BME280;5303;53.266;10.410;2023-04-03T07:39:23;103230.38;;;14.18;40.20
10510;BME280;5303;53.266;10.410;2023-04-03T07:41:48;103235.91;;;13.45;40.92
10510;BME280;5303;53.266;10.410;2023-04-03T07:44:13;103230.34;;;14.49;40.16
10510;BME280;5303;53.266;10.410;2023-04-03T07:46:39;103226.84;;;14.77;39.86
10510;BME280;5303;53.266;10.410;2023-04-03T07:49:05;103223.38;;;14.85;39.71
10510;BME280;5303;53.266;10.410;2023-04-03T07:51:30;103229.28;;;15.48;38.85
10510;BME280;5303;53.266;10.410;2023-04-03T07:53:56;103228.09;;;15.90;38.68
10510;BME280;5303;53.266;10.410;2023-04-03T07:56:21;103234.81;;;14.50;38.75
10510;BME280;5303;53.266;10.410;2023-04-03T07:58:47;103238.25;;;14.92;39.23
10510;BME280;5303;53.266;10.410;2023-04-03T08:01:14;103229.41;;;14.69;38.94
10510;BME280;5303;53.266;10.410;2023-04-03T08:03:39;103227.16;;;14.94;39.36
10510;BME280;5303;53.266;10.410;2023-04-03T08:06:07;103232.75;;;14.82;39.01
10510;BME280;5303;53.266;10.410;2023-04-03T08:08:32;103230.16;;;15.39;38.61
10510;BME280;5303;53.266;10.410;2023-04-03T08:11:00;103225.72;;;15.28;38.24
10510;BME280;5303;53.266;10.410;2023-04-03T08:13:25;103218.56;;;15.65;37.90
10510;BME280;5303;53.266;10.410;2023-04-03T08:15:51;103216.56;;;15.57;38.48
10510;BME280;5303;53.266;10.410;2023-04-03T08:18:17;103223.38;;;15.33;38.44
10510;BME280;5303;53.266;10.410;2023-04-03T08:20:43;103219.06;;;15.97;38.14
10510;BME280;5303;53.266;10.410;2023-04-03T08:23:09;103221.34;;;15.45;38.84
10510;BME280;5303;53.266;10.410;2023-04-03T08:25:39;103225.50;;;15.78;37.75
10510;BME280;5303;53.266;10.410;2023-04-03T08:28:05;103223.13;;;16.03;37.16
10510;BME280;5303;53.266;10.410;2023-04-03T08:30:31;103227.28;;;16.07;36.40
10510;BME280;5303;53.266;10.410;2023-04-03T08:32:57;103223.81;;;15.29;37.26
10510;BME280;5303;53.266;10.410;2023-04-03T08:35:22;103227.16;;;15.32;36.37
10510;BME280;5303;53.266;10.410;2023-04-03T08:37:47;103231.13;;;14.60;36.82
10510;BME280;5303;53.266;10.410;2023-04-03T08:40:14;103223.09;;;15.17;37.10
10510;BME280;5303;53.266;10.410;2023-04-03T08:45:44;103220.50;;;14.77;34.86
10510;BME280;5303;53.266;10.410;2023-04-03T08:50:50;103206.41;;;16.69;33.74
10510;BME280;5303;53.266;10.410;2023-04-03T08:53:21;103205.56;;;15.76;34.15
10510;BME280;5303;53.266;10.410;2023-04-03T08:55:49;103206.69;;;16.76;33.67
10510;BME280;5303;53.266;10.410;2023-04-03T08:58:25;103201.09;;;16.86;32.75
10510;BME280;5303;53.266;10.410;2023-04-03T09:00:58;103206.63;;;16.03;31.99
10510;BME280;5303;53.266;10.410;2023-04-03T09:03:24;103205.28;;;15.50;32.46
10510;BME280;5303;53.266;10.410;2023-04-03T09:08:27;103201.66;;;16.89;31.28
10510;BME280;5303;53.266;10.410;2023-04-03T09:11:09;103205.88;;;16.01;30.77
10510;BME280;5303;53.266;10.410;2023-04-03T09:22:24;103200.84;;;14.81;33.31
10510;BME280;5303;53.266;10.410;2023-04-03T09:25:00;103194.97;;;16.64;31.99
10510;BME280;5303;53.266;10.410;2023-04-03T09:27:27;103202.63;;;16.25;33.50
10510;BME280;5303;53.266;10.410;2023-04-03T09:29:55;103200.63;;;16.90;31.85
10510;BME280;5303;53.266;10.410;2023-04-03T09:32:32;103199.00;;;16.70;31.15
10510;BME280;5303;53.266;10.410;2023-04-03T09:35:24;103195.19;;;16.81;32.29
10510;BME280;5303;53.266;10.410;2023-04-03T09:37:51;103196.94;;;16.26;32.09
10510;BME280;5303;53.266;10.410;2023-04-03T09:43:02;103188.19;;;15.76;32.50
10510;BME280;5303;53.266;10.410;2023-04-03T09:45:31;103190.72;;;15.30;32.83
10510;BME280;5303;53.266;10.410;2023-04-03T09:50:37;103191.69;;;15.49;32.18
10510;BME280;5303;53.266;10.410;2023-04-03T09:53:27;103190.31;;;14.96;33.12
10510;BME280;5303;53.266;10.410;2023-04-03T09:55:53;103193.47;;;15.11;33.32
10510;BME280;5303;53.266;10.410;2023-04-03T09:58:27;103189.41;;;14.57;33.20
10510;BME280;5303;53.266;10.410;2023-04-03T10:00:58;103179.84;;;15.68;30.78
10510;BME280;5303;53.266;10.410;2023-04-03T10:05:55;103181.00;;;15.55;30.49
10510;BME280;5303;53.266;10.410;2023-04-03T10:08:26;103176.91;;;15.59;31.64
10510;BME280;5303;53.266;10.410;2023-04-03T10:11:08;103175.41;;;15.18;30.80
10510;BME280;5303;53.266;10.410;2023-04-03T10:13:37;103172.22;;;15.99;29.76
10510;BME280;5303;53.266;10.410;2023-04-03T10:16:17;103175.56;;;14.87;30.31
10510;BME280;5303;53.266;10.410;2023-04-03T10:18:56;103180.72;;;14.11;31.76
10510;BME280;5303;53.266;10.410;2023-04-03T10:24:14;103146.78;;;16.60;30.90
10510;BME280;5303;53.266;10.410;2023-04-03T10:26:59;103167.69;;;14.44;32.40
10510;BME280;5303;53.266;10.410;2023-04-03T10:32:14;103168.25;;;14.38;31.34
10510;BME280;5303;53.266;10.410;2023-04-03T10:34:44;103161.41;;;14.82;31.48
10510;BME280;5303;53.266;10.410;2023-04-03T10:37:26;103146.69;;;16.52;29.91
10510;BME280;5303;53.266;10.410;2023-04-03T10:45:28;103155.69;;;14.26;31.77
10510;BME280;5303;53.266;10.410;2023-04-03T10:48:31;103130.19;;;16.34;31.23
10510;BME280;5303;53.266;10.410;2023-04-03T10:58:45;103131.88;;;16.81;29.16
10510;BME280;5303;53.266;10.410;2023-04-03T11:01:18;103127.81;;;15.47;30.17
10510;BME280;5303;53.266;10.410;2023-04-03T11:03:49;103133.50;;;15.26;29.71
10510;BME280;5303;53.266;10.410;2023-04-03T11:06:18;103124.44;;;14.96;30.43
10510;BME280;5303;53.266;10.410;2023-04-03T11:08:57;103119.53;;;15.00;31.09
10510;BME280;5303;53.266;10.410;2023-04-03T11:11:30;103123.84;;;14.54;31.32
10510;BME280;5303;53.266;10.410;2023-04-03T11:14:11;103122.22;;;15.29;30.37
10510;BME280;5303;53.266;10.410;2023-04-03T11:16:43;103124.16;;;14.70;30.83
10510;BME280;5303;53.266;10.410;2023-04-03T11:19:18;103120.97;;;14.55;30.53
10510;BME280;5303;53.266;10.410;2023-04-03T11:22:09;103123.06;;;14.13;31.67
10510;BME280;5303;53.266;10.410;2023-04-03T11:24:39;103108.66;;;15.08;30.54
10510;BME280;5303;53.266;10.410;2023-04-03T11:27:15;103109.41;;;15.94;30.54
10510;BME280;5303;53.266;10.410;2023-04-03T11:29:44;103112.78;;;15.51;30.32
10510;BME280;5303;53.266;10.410;2023-04-03T11:32:24;103110.13;;;14.83;30.19
10510;BME280;5303;53.266;10.410;2023-04-03T11:34:56;103100.16;;;15.68;30.30
10510;BME280;5303;53.266;10.410;2023-04-03T11:37:34;103100.38;;;15.84;29.29
10510;BME280;5303;53.266;10.410;2023-04-03T11:40:13;103097.31;;;16.33;29.58
10510;BME280;5303;53.266;10.410;2023-04-03T11:42:49;103096.75;;;15.83;30.54
10510;BME280;5303;53.266;10.410;2023-04-03T11:53:02;103084.56;;;16.14;30.83
10510;BME280;5303;53.266;10.410;2023-04-03T12:05:57;103083.97;;;15.55;30.02
10510;BME280;5303;53.266;10.410;2023-04-03T12:16:25;103072.16;;;16.27;28.40
10510;BME280;5303;53.266;10.410;2023-04-03T12:26:40;103064.03;;;16.08;29.42
10510;BME280;5303;53.266;10.410;2023-04-03T12:37:24;103067.34;;;15.19;31.10
10510;BME280;5303;53.266;10.410;2023-04-03T12:45:22;103062.13;;;15.26;30.63
10510;BME280;5303;53.266;10.410;2023-04-03T12:47:51;103053.16;;;16.16;30.14
10510;BME280;5303;53.266;10.410;2023-04-03T12:50:27;103047.50;;;15.35;30.84
10510;BME280;5303;53.266;10.410;2023-04-03T12:53:02;103056.91;;;15.60;31.04
10510;BME280;5303;53.266;10.410;2023-04-03T12:55:29;103054.19;;;15.50;30.42
10510;BME280;5303;53.266;10.410;2023-04-03T12:57:54;103055.09;;;15.04;30.10
10510;BME280;5303;53.266;10.410;2023-04-03T13:02:46;103054.50;;;15.10;29.81
10510;BME280;5303;53.266;10.410;2023-04-03T13:05:16;103044.53;;;16.47;29.31
10510;BME280;5303;53.266;10.410;2023-04-03T13:07:43;103038.38;;;16.53;27.57
10510;BME280;5303;53.266;10.410;2023-04-03T13:12:35;103016.50;;;17.82;26.80
10510;BME280;5303;53.266;10.410;2023-04-03T13:15:43;103010.31;;;17.96;27.44
10510;BME280;5303;53.266;10.410;2023-04-03T13:18:24;103017.94;;;17.26;27.63
10510;BME280;5303;53.266;10.410;2023-04-03T13:20:50;103024.63;;;16.17;29.29
10510;BME280;5303;53.266;10.410;2023-04-03T13:23:17;103031.91;;;15.91;29.40
10510;BME280;5303;53.266;10.410;2023-04-03T13:25:46;103025.94;;;14.93;30.19
10510;BME280;5303;53.266;10.410;2023-04-03T13:28:17;103032.84;;;15.44;30.34
10510;BME280;5303;53.266;10.410;2023-04-03T13:33:29;103029.03;;;15.92;29.17
10510;BME280;5303;53.266;10.410;2023-04-03T13:36:00;103015.72;;;16.77;28.94
10510;BME280;5303;53.266;10.410;2023-04-03T13:38:30;103024.69;;;15.90;29.05
10510;BME280;5303;53.266;10.410;2023-04-03T13:41:01;103020.72;;;16.02;27.77
10510;BME280;5303;53.266;10.410;2023-04-03T13:43:31;103021.94;;;16.43;27.61
10510;BME280;5303;53.266;10.410;2023-04-03T13:46:19;103004.94;;;17.10;27.22
10510;BME280;5303;53.266;10.410;2023-04-03T13:48:49;103002.25;;;16.74;27.83
10510;BME280;5303;53.266;10.410;2023-04-03T13:53:44;103011.41;;;15.85;28.65
10510;BME280;5303;53.266;10.410;2023-04-03T13:56:33;103014.13;;;15.57;28.04
10510;BME280;5303;53.266;10.410;2023-04-03T14:01:37;102996.63;;;17.28;26.89
10510;BME280;5303;53.266;10.410;2023-04-03T14:04:15;103002.38;;;16.11;27.89
10510;BME280;5303;53.266;10.410;2023-04-03T14:06:42;103021.13;;;15.05;29.10
10510;BME280;5303;53.266;10.410;2023-04-03T14:09:07;103013.38;;;14.90;29.87
10510;BME280;5303;53.266;10.410;2023-04-03T14:11:33;103010.53;;;14.43;29.94
10510;BME280;5303;53.266;10.410;2023-04-03T14:14:02;103004.59;;;15.24;29.06
10510;BME280;5303;53.266;10.410;2023-04-03T14:16:32;103006.03;;;15.56;29.67
10510;BME280;5303;53.266;10.410;2023-04-03T14:18:59;103001.66;;;15.35;29.28
10510;BME280;5303;53.266;10.410;2023-04-03T14:21:24;102994.53;;;15.98;29.13
10510;BME280;5303;53.266;10.410;2023-04-03T14:23:50;102987.16;;;16.34;28.48
10510;BME280;5303;53.266;10.410;2023-04-03T14:26:19;102993.53;;;15.99;28.88
10510;BME280;5303;53.266;10.410;2023-04-03T14:28:47;102986.97;;;14.70;29.63
10510;BME280;5303;53.266;10.410;2023-04-03T14:31:13;103003.34;;;14.52;29.07
10510;BME280;5303;53.266;10.410;2023-04-03T14:33:41;103001.75;;;15.16;28.58
10510;BME280;5303;53.266;10.410;2023-04-03T14:36:21;102995.56;;;15.42;28.36
10510;BME280;5303;53.266;10.410;2023-04-03T14:38:48;102992.31;;;16.01;27.60
10510;BME280;5303;53.266;10.410;2023-04-03T14:41:17;102977.59;;;16.64;28.51
10510;BME280;5303;53.266;10.410;2023-04-03T14:43:44;102975.84;;;16.19;28.11
10510;BME280;5303;53.266;10.410;2023-04-03T14:46:16;102972.69;;;16.32;27.46